createdAt,value
2019-05-18T00:00:22.386Z,13.00
2019-05-18T00:02:27.973Z,12.90
2019-05-18T00:04:34.502Z,13.00
2019-05-18T00:06:40.018Z,12.90
2019-05-18T00:08:45.521Z,12.90
2019-05-18T00:10:51.106Z,12.90
2019-05-18T00:12:56.722Z,13.00
2019-05-18T00:15:02.278Z,13.00
2019-05-18T00:17:17.316Z,13.00
2019-05-18T00:19:15.069Z,12.80
2019-05-18T00:21:20.664Z,12.70
2019-05-18T00:23:26.188Z,12.60
2019-05-18T00:25:31.736Z,12.50
2019-05-18T00:27:37.323Z,12.50
2019-05-18T00:29:47.988Z,12.40
2019-05-18T00:31:53.533Z,12.30
2019-05-18T00:33:59.145Z,12.20
2019-05-18T00:36:05.009Z,12.10
2019-05-18T00:38:10.663Z,12.10
2019-05-18T00:40:16.339Z,12.00
2019-05-18T00:42:21.854Z,12.00
2019-05-18T00:44:27.401Z,12.00
2019-05-18T00:46:32.931Z,11.90
2019-05-18T00:48:38.509Z,11.80
2019-05-18T00:50:44.166Z,11.70
2019-05-18T00:52:49.703Z,11.70
2019-05-18T00:54:55.254Z,11.80
2019-05-18T00:57:00.881Z,11.70
2019-05-18T00:59:06.432Z,11.70
2019-05-18T01:01:12.015Z,11.90
2019-05-18T01:03:17.596Z,11.90
2019-05-18T01:05:23.110Z,11.90
2019-05-18T01:07:28.625Z,11.90
2019-05-18T01:09:34.206Z,11.80
2019-05-18T01:11:39.725Z,11.70
2019-05-18T01:13:45.268Z,11.60
2019-05-18T01:15:50.869Z,11.50
2019-05-18T01:17:57.744Z,11.30
2019-05-18T01:20:04.977Z,11.20
2019-05-18T01:22:10.545Z,11.20
2019-05-18T01:24:16.077Z,11.10
2019-05-18T01:26:21.665Z,10.90
2019-05-18T01:28:27.240Z,10.90
2019-05-18T01:30:32.768Z,11.00
2019-05-18T01:32:38.378Z,10.90
2019-05-18T01:34:43.920Z,11.00
2019-05-18T01:36:49.460Z,11.00
2019-05-18T01:38:54.996Z,11.10
2019-05-18T01:41:00.620Z,11.10
2019-05-18T01:43:06.148Z,11.20
2019-05-18T01:45:16.789Z,11.00
2019-05-18T01:47:19.363Z,11.10
2019-05-18T01:49:25.941Z,11.10
2019-05-18T01:51:31.487Z,11.30
2019-05-18T01:53:38.106Z,11.30
2019-05-18T01:55:43.722Z,11.30
2019-05-18T01:57:51.269Z,11.40
2019-05-18T01:59:56.846Z,11.20
2019-05-18T02:02:02.460Z,11.10
2019-05-18T02:04:08.059Z,11.10
2019-05-18T02:06:13.678Z,11.10
2019-05-18T02:08:20.277Z,11.10
2019-05-18T02:10:25.950Z,11.10
2019-05-18T02:12:31.582Z,11.20
2019-05-18T02:14:37.094Z,11.30
2019-05-18T02:16:42.713Z,11.30
2019-05-18T02:18:48.286Z,11.30
2019-05-18T02:20:53.853Z,11.30
2019-05-18T02:22:59.379Z,11.30
2019-05-18T02:25:08.288Z,11.30
2019-05-18T02:27:13.802Z,11.20
2019-05-18T02:29:19.341Z,11.30
2019-05-18T02:31:24.961Z,11.20
2019-05-18T02:33:30.490Z,11.10
2019-05-18T02:35:36.039Z,11.00
2019-05-18T02:37:41.745Z,10.80
2019-05-18T02:39:48.965Z,10.80
2019-05-18T02:41:54.565Z,10.80
2019-05-18T02:44:00.110Z,10.80
2019-05-18T02:46:05.624Z,10.80
2019-05-18T02:48:11.406Z,10.90
2019-05-18T02:50:18.165Z,11.10
2019-05-18T02:52:23.696Z,11.20
2019-05-18T02:54:29.262Z,11.40
2019-05-18T02:56:35.156Z,11.40
2019-05-18T02:58:40.702Z,11.40
2019-05-18T03:00:46.702Z,11.30
2019-05-18T03:02:53.393Z,11.30
2019-05-18T03:04:58.943Z,11.30
2019-05-18T03:07:04.659Z,11.20
2019-05-18T03:09:10.310Z,11.10
2019-05-18T03:11:15.923Z,11.00
2019-05-18T03:13:21.746Z,10.80
2019-05-18T03:15:27.415Z,10.60
2019-05-18T03:17:32.946Z,10.40
2019-05-18T03:19:38.578Z,10.40
2019-05-18T03:21:44.900Z,10.40
2019-05-18T03:23:50.416Z,10.40
2019-05-18T03:25:55.988Z,10.40
2019-05-18T03:28:01.529Z,10.40
2019-05-18T03:30:10.739Z,10.60
2019-05-18T03:32:16.341Z,10.70
2019-05-18T03:34:21.918Z,10.80
2019-05-18T03:36:27.423Z,10.80
2019-05-18T03:38:32.971Z,10.60
2019-05-18T03:40:38.549Z,10.50
2019-05-18T03:42:44.022Z,10.50
2019-05-18T03:44:49.593Z,10.40
2019-05-18T03:46:55.152Z,10.30
2019-05-18T03:49:00.753Z,10.40
2019-05-18T03:51:06.876Z,10.30
2019-05-18T03:53:12.405Z,10.20
2019-05-18T03:55:17.966Z,10.10
2019-05-18T03:57:23.528Z,10.10
2019-05-18T03:59:29.062Z,10.10
2019-05-18T04:01:34.591Z,10.10
2019-05-18T04:03:40.132Z,10.10
2019-05-18T04:05:45.665Z,10.20
2019-05-18T04:07:51.228Z,10.30
2019-05-18T04:09:56.725Z,10.50
2019-05-18T04:12:02.339Z,10.40
2019-05-18T04:14:08.840Z,10.30
2019-05-18T04:16:14.726Z,10.40
2019-05-18T04:18:20.298Z,10.50
2019-05-18T04:20:25.903Z,10.80
2019-05-18T04:22:31.430Z,10.80
2019-05-18T04:24:37.211Z,10.70
2019-05-18T04:26:42.721Z,10.70
2019-05-18T04:28:48.272Z,10.70
2019-05-18T04:30:53.801Z,10.80
2019-05-18T04:32:59.394Z,10.80
2019-05-18T04:35:07.863Z,10.80
2019-05-18T04:37:13.437Z,11.00
2019-05-18T04:39:18.944Z,11.20
2019-05-18T04:41:24.481Z,11.30
2019-05-18T04:43:30.007Z,11.40
2019-05-18T04:45:36.507Z,11.50
2019-05-18T04:47:42.064Z,11.60
2019-05-18T04:50:03.850Z,11.70
2019-05-18T04:51:54.817Z,11.80
2019-05-18T04:54:00.366Z,11.80
2019-05-18T04:56:05.899Z,11.90
2019-05-18T04:58:11.468Z,11.90
2019-05-18T05:00:17.165Z,11.90
2019-05-18T05:02:22.772Z,11.80
2019-05-18T05:04:28.312Z,11.80
2019-05-18T05:06:33.925Z,11.90
2019-05-18T05:08:39.428Z,12.00
2019-05-18T05:10:44.985Z,11.90
2019-05-18T05:13:13.347Z,12.00
2019-05-18T05:15:19.049Z,11.90
2019-05-18T05:17:24.600Z,11.80
2019-05-18T05:19:30.150Z,11.80
2019-05-18T05:21:35.735Z,12.00
2019-05-18T05:23:41.261Z,12.10
2019-05-18T05:25:46.787Z,12.10
2019-05-18T05:27:52.306Z,12.10
2019-05-18T05:29:57.820Z,12.10
2019-05-18T05:32:03.364Z,12.10
2019-05-18T05:34:08.883Z,12.10
2019-05-18T05:36:14.393Z,12.10
2019-05-18T05:38:19.949Z,12.40
2019-05-18T05:40:25.491Z,12.40
2019-05-18T05:42:31.209Z,12.70
2019-05-18T05:44:36.736Z,12.60
2019-05-18T05:46:42.248Z,12.70
2019-05-18T05:48:47.769Z,12.70
2019-05-18T05:50:53.405Z,12.60
2019-05-18T05:52:59.078Z,12.70
2019-05-18T05:55:08.410Z,12.90
2019-05-18T05:57:13.951Z,12.90
2019-05-18T05:59:19.483Z,12.90
2019-05-18T06:01:25.016Z,13.10
2019-05-18T06:03:30.547Z,13.20
2019-05-18T06:05:37.037Z,13.20
2019-05-18T06:07:42.563Z,13.40
2019-05-18T06:09:48.085Z,13.40
2019-05-18T06:11:53.616Z,13.40
2019-05-18T06:13:59.141Z,13.60
2019-05-18T06:16:04.905Z,13.90
2019-05-18T06:18:10.421Z,14.00
2019-05-18T06:20:16.009Z,14.10
2019-05-18T06:22:21.646Z,14.30
2019-05-18T06:24:27.175Z,14.60
2019-05-18T06:26:32.681Z,14.90
2019-05-18T06:28:38.291Z,15.20
2019-05-18T06:30:43.811Z,15.60
2019-05-18T06:32:49.350Z,15.90
2019-05-18T06:34:54.909Z,16.20
2019-05-18T06:37:00.638Z,16.50
2019-05-18T06:39:07.601Z,16.80
2019-05-18T06:41:13.168Z,17.00
2019-05-18T06:43:18.629Z,17.30
2019-05-18T06:45:24.227Z,17.60
2019-05-18T06:47:29.754Z,17.80
2019-05-18T06:49:35.278Z,18.00
2019-05-18T06:51:40.815Z,18.00
2019-05-18T06:53:46.342Z,18.30
2019-05-18T06:55:53.869Z,18.50
2019-05-18T06:58:00.174Z,18.60
2019-05-18T07:00:14.597Z,18.60
2019-05-18T07:02:20.185Z,18.40
2019-05-18T07:04:25.706Z,18.50
2019-05-18T07:06:31.245Z,18.80
2019-05-18T07:08:36.760Z,19.00
2019-05-18T07:10:42.355Z,19.30
2019-05-18T07:12:47.978Z,19.40
2019-05-18T07:14:53.504Z,19.60
2019-05-18T07:16:59.088Z,19.80
2019-05-18T07:19:04.680Z,19.90
2019-05-18T07:21:21.365Z,19.90
2019-05-18T07:23:17.438Z,19.90
2019-05-18T07:25:23.020Z,20.10
2019-05-18T07:27:28.595Z,20.20
2019-05-18T07:29:34.109Z,19.90
2019-05-18T07:31:39.717Z,19.90
2019-05-18T07:33:45.233Z,20.30
2019-05-18T07:35:50.829Z,20.40
2019-05-18T07:37:56.366Z,20.40
2019-05-18T07:40:02.227Z,20.30
2019-05-18T07:42:07.979Z,20.20
2019-05-18T07:44:13.474Z,20.40
2019-05-18T07:46:19.076Z,20.70
2019-05-18T07:48:24.588Z,21.00
2019-05-18T07:50:30.179Z,21.20
2019-05-18T07:52:35.764Z,21.30
2019-05-18T07:54:41.272Z,21.70
2019-05-18T07:56:46.783Z,21.70
2019-05-18T07:58:52.352Z,21.70
2019-05-18T08:00:57.863Z,22.00
2019-05-18T08:03:03.444Z,22.20
2019-05-18T08:05:10.481Z,22.20
2019-05-18T08:07:16.065Z,22.20
2019-05-18T08:09:21.580Z,22.10
2019-05-18T08:11:27.461Z,22.10
2019-05-18T08:13:32.982Z,21.50
2019-05-18T08:15:39.711Z,21.50
2019-05-18T08:17:45.290Z,21.40
2019-05-18T08:19:50.803Z,21.60
2019-05-18T08:21:56.334Z,21.80
2019-05-18T08:24:02.023Z,21.80
2019-05-18T08:26:07.577Z,22.00
2019-05-18T08:28:13.108Z,22.10
2019-05-18T08:30:18.876Z,22.30
2019-05-18T08:32:24.440Z,22.30
2019-05-18T08:34:29.966Z,22.20
2019-05-18T08:36:35.472Z,22.20
2019-05-18T08:38:41.010Z,22.10
2019-05-18T08:40:46.512Z,22.30
2019-05-18T08:42:52.089Z,22.00
2019-05-18T08:44:57.613Z,22.10
2019-05-18T08:47:04.254Z,22.00
2019-05-18T08:49:09.890Z,22.00
2019-05-18T08:51:15.416Z,22.20
2019-05-18T08:53:20.994Z,22.20
2019-05-18T08:55:26.508Z,22.30
2019-05-18T08:57:32.094Z,22.40
2019-05-18T08:59:40.007Z,22.70
2019-05-18T09:01:46.729Z,22.60
2019-05-18T09:03:52.348Z,22.40
2019-05-18T09:05:57.873Z,22.00
2019-05-18T09:08:03.457Z,22.00
2019-05-18T09:10:09.177Z,22.20
2019-05-18T09:12:14.703Z,22.60
2019-05-18T09:14:20.238Z,22.60
2019-05-18T09:16:25.745Z,22.80
2019-05-18T09:18:31.290Z,22.90
2019-05-18T09:20:36.831Z,22.70
2019-05-18T09:22:42.377Z,22.90
2019-05-18T09:24:47.908Z,22.80
2019-05-18T09:26:53.430Z,22.60
2019-05-18T09:28:58.992Z,23.10
2019-05-18T09:31:04.583Z,23.30
2019-05-18T09:33:10.094Z,23.70
2019-05-18T09:35:15.998Z,23.70
2019-05-18T09:37:21.584Z,23.80
2019-05-18T09:39:27.253Z,24.00
2019-05-18T09:41:32.831Z,24.00
2019-05-18T09:43:38.379Z,24.20
2019-05-18T09:45:43.889Z,24.10
2019-05-18T09:47:49.675Z,24.20
2019-05-18T09:49:55.210Z,24.30
2019-05-18T09:52:00.782Z,24.50
2019-05-18T09:54:06.533Z,24.20
2019-05-18T09:56:13.284Z,23.30
2019-05-18T09:58:18.824Z,23.10
2019-05-18T10:00:26.227Z,23.30
2019-05-18T10:02:31.908Z,23.50
2019-05-18T10:04:39.384Z,23.80
2019-05-18T10:06:44.911Z,24.00
2019-05-18T10:08:50.442Z,24.30
2019-05-18T10:10:56.096Z,24.40
2019-05-18T10:13:01.837Z,24.30
2019-05-18T10:15:08.989Z,24.10
2019-05-18T10:17:14.608Z,23.90
2019-05-18T10:19:20.582Z,23.90
2019-05-18T10:21:26.126Z,23.60
2019-05-18T10:23:31.693Z,23.10
2019-05-18T10:25:37.208Z,22.70
2019-05-18T10:27:42.795Z,22.80
2019-05-18T10:29:49.368Z,23.30
2019-05-18T10:31:54.888Z,23.60
2019-05-18T10:34:00.504Z,23.90
2019-05-18T10:36:06.041Z,24.10
2019-05-18T10:38:11.626Z,24.20
2019-05-18T10:40:17.796Z,24.40
2019-05-18T10:42:23.317Z,24.50
2019-05-18T10:44:28.820Z,24.80
2019-05-18T10:46:35.403Z,25.00
2019-05-18T10:48:40.896Z,25.10
2019-05-18T10:50:46.546Z,25.00
2019-05-18T10:52:52.053Z,24.40
2019-05-18T10:54:57.549Z,24.50
2019-05-18T10:57:03.085Z,24.40
2019-05-18T10:59:08.664Z,24.50
2019-05-18T11:01:14.213Z,24.60
2019-05-18T11:03:19.804Z,24.80
2019-05-18T11:05:25.318Z,24.80
2019-05-18T11:07:30.975Z,24.90
2019-05-18T11:09:36.565Z,24.30
2019-05-18T11:11:42.069Z,24.30
2019-05-18T11:13:47.746Z,24.50
2019-05-18T11:15:53.329Z,24.80
2019-05-18T11:17:58.840Z,25.00
2019-05-18T11:20:07.789Z,24.90
2019-05-18T11:22:23.557Z,24.80
2019-05-18T11:24:29.084Z,24.60
2019-05-18T11:26:34.589Z,24.60
2019-05-18T11:28:40.104Z,24.60
2019-05-18T11:30:45.621Z,24.70
2019-05-18T11:32:51.270Z,24.70
2019-05-18T11:34:56.820Z,24.80
2019-05-18T11:37:03.191Z,24.80
2019-05-18T11:39:16.250Z,24.90
2019-05-18T11:41:22.029Z,25.00
2019-05-18T11:43:28.596Z,25.00
2019-05-18T11:45:40.703Z,24.90
2019-05-18T11:47:46.294Z,24.70
2019-05-18T11:49:51.948Z,24.50
2019-05-18T11:51:57.451Z,24.40
2019-05-18T11:54:02.978Z,24.50
2019-05-18T11:56:08.572Z,24.60
2019-05-18T11:58:14.084Z,24.60
2019-05-18T12:00:24.980Z,24.60
2019-05-18T12:02:30.497Z,24.40
2019-05-18T12:04:36.010Z,24.40
2019-05-18T12:06:41.534Z,24.50
2019-05-18T12:08:47.213Z,24.60
2019-05-18T12:11:05.166Z,24.60
2019-05-18T12:13:10.749Z,24.60
2019-05-18T12:15:16.817Z,24.40
2019-05-18T12:17:22.400Z,24.50
2019-05-18T12:19:27.902Z,24.40
2019-05-18T12:21:33.504Z,24.40
2019-05-18T12:23:45.293Z,24.40
2019-05-18T12:25:58.813Z,24.50
2019-05-18T12:28:09.377Z,24.50
2019-05-18T12:30:16.938Z,24.40
2019-05-18T12:32:22.455Z,24.50
2019-05-18T12:34:28.051Z,24.50
2019-05-18T12:36:39.475Z,24.40
2019-05-18T12:38:48.312Z,24.50
2019-05-18T12:40:54.535Z,24.50
2019-05-18T12:43:00.073Z,24.50
2019-05-18T12:45:07.481Z,24.60
2019-05-18T12:47:14.420Z,24.60
2019-05-18T12:49:20.301Z,24.40
2019-05-18T12:51:25.898Z,24.10
2019-05-18T12:53:31.423Z,24.10
2019-05-18T12:55:36.925Z,24.00
2019-05-18T12:57:42.505Z,24.20
2019-05-18T12:59:48.097Z,24.30
2019-05-18T13:01:59.082Z,24.30
2019-05-18T13:04:04.765Z,24.30
2019-05-18T13:06:10.356Z,24.10
2019-05-18T13:08:15.857Z,23.50
2019-05-18T13:10:21.505Z,23.30
2019-05-18T13:12:27.035Z,23.40
2019-05-18T13:14:32.614Z,23.50
2019-05-18T13:16:38.708Z,23.80
2019-05-18T13:18:44.350Z,24.10
2019-05-18T13:20:51.400Z,24.20
2019-05-18T13:22:57.873Z,24.20
2019-05-18T13:25:04.530Z,24.20
2019-05-18T13:27:10.116Z,24.10
2019-05-18T13:29:15.696Z,24.20
2019-05-18T13:31:21.204Z,23.90
2019-05-18T13:33:26.727Z,23.80
2019-05-18T13:35:32.247Z,24.00
2019-05-18T13:37:37.804Z,24.10
2019-05-18T13:39:43.315Z,24.20
2019-05-18T13:41:48.816Z,24.10
2019-05-18T13:43:54.317Z,24.00
2019-05-18T13:45:59.838Z,24.00
2019-05-18T13:48:05.420Z,23.90
2019-05-18T13:50:12.605Z,23.80
2019-05-18T13:52:18.114Z,23.70
2019-05-18T13:54:23.632Z,23.70
2019-05-18T13:56:29.173Z,23.70
2019-05-18T13:58:34.719Z,23.70
2019-05-18T14:00:40.308Z,23.70
2019-05-18T14:02:45.828Z,23.70
2019-05-18T14:04:51.444Z,23.60
2019-05-18T14:06:56.968Z,23.60
2019-05-18T14:09:02.479Z,23.60
2019-05-18T14:11:08.101Z,23.60
2019-05-18T14:13:13.625Z,23.60
2019-05-18T14:15:22.583Z,23.70
2019-05-18T14:17:26.542Z,23.70
2019-05-18T14:19:32.146Z,23.70
2019-05-18T14:21:37.668Z,23.60
2019-05-18T14:23:43.201Z,23.60
2019-05-18T14:25:49.858Z,23.60
2019-05-18T14:27:55.386Z,23.50
2019-05-18T14:30:01.077Z,23.30
2019-05-18T14:32:10.835Z,23.10
2019-05-18T14:34:14.845Z,23.00
2019-05-18T14:36:20.383Z,22.80
2019-05-18T14:38:25.892Z,22.70
2019-05-18T14:40:31.575Z,22.70
2019-05-18T14:42:37.108Z,22.70
2019-05-18T14:44:42.704Z,22.60
2019-05-18T14:46:48.246Z,22.60
2019-05-18T14:48:53.817Z,22.70
2019-05-18T14:50:59.385Z,22.60
2019-05-18T14:53:04.981Z,22.50
2019-05-18T14:55:11.067Z,22.50
2019-05-18T14:57:16.756Z,22.50
2019-05-18T14:59:22.261Z,22.50
2019-05-18T15:01:27.817Z,22.50
2019-05-18T15:03:33.317Z,22.40
2019-05-18T15:05:39.004Z,22.40
2019-05-18T15:07:44.564Z,22.40
2019-05-18T15:09:50.065Z,22.40
2019-05-18T15:11:55.571Z,22.50
2019-05-18T15:14:01.120Z,22.30
2019-05-18T15:16:06.649Z,22.10
2019-05-18T15:18:12.322Z,22.00
2019-05-18T15:20:18.056Z,21.90
2019-05-18T15:22:23.663Z,21.90
2019-05-18T15:24:29.235Z,22.00
2019-05-18T15:26:34.917Z,22.00
2019-05-18T15:28:40.444Z,21.90
2019-05-18T15:30:45.966Z,21.90
2019-05-18T15:32:51.483Z,22.00
2019-05-18T15:34:56.981Z,22.00
2019-05-18T15:37:02.658Z,22.00
2019-05-18T15:39:08.795Z,22.10
2019-05-18T15:41:14.370Z,22.10
2019-05-18T15:43:19.958Z,22.10
2019-05-18T15:45:25.712Z,22.10
2019-05-18T15:47:31.333Z,22.20
2019-05-18T15:49:36.945Z,22.20
2019-05-18T15:51:42.466Z,21.60
2019-05-18T15:53:48.153Z,21.00
2019-05-18T15:56:05.441Z,20.70
2019-05-18T15:58:01.927Z,20.50
2019-05-18T16:00:10.327Z,20.40
2019-05-18T16:02:16.065Z,20.10
2019-05-18T16:04:21.624Z,20.10
2019-05-18T16:06:27.133Z,20.00
2019-05-18T16:08:32.818Z,19.90
2019-05-18T16:10:40.292Z,19.80
2019-05-18T16:12:45.825Z,19.70
2019-05-18T16:14:51.420Z,19.50
2019-05-18T16:16:59.234Z,19.30
2019-05-18T16:19:04.952Z,19.20
2019-05-18T16:21:10.567Z,18.80
2019-05-18T16:23:16.650Z,18.60
2019-05-18T16:25:22.427Z,18.60
2019-05-18T16:27:29.066Z,18.70
2019-05-18T16:29:34.721Z,18.70
2019-05-18T16:31:40.357Z,18.50
2019-05-18T16:33:45.964Z,18.50
2019-05-18T16:35:51.661Z,18.30
2019-05-18T16:37:57.242Z,18.20
2019-05-18T16:40:02.918Z,18.00
2019-05-18T16:42:08.798Z,18.00
2019-05-18T16:44:14.344Z,17.80
2019-05-18T16:46:19.957Z,18.10
2019-05-18T16:48:27.210Z,18.20
2019-05-18T16:50:32.870Z,18.40
2019-05-18T16:52:38.469Z,18.20
2019-05-18T16:54:44.027Z,18.20
2019-05-18T16:56:49.560Z,18.30
2019-05-18T16:58:55.098Z,18.10
2019-05-18T17:01:00.781Z,18.00
2019-05-18T17:03:10.733Z,18.00
2019-05-18T17:05:16.594Z,17.90
2019-05-18T17:07:22.215Z,18.00
2019-05-18T17:09:29.386Z,18.00
2019-05-18T17:11:34.973Z,17.90
2019-05-18T17:13:40.551Z,17.90
2019-05-18T17:15:46.329Z,17.90
2019-05-18T17:17:52.029Z,17.90
2019-05-18T17:19:57.701Z,17.90
2019-05-18T17:22:04.802Z,17.80
2019-05-18T17:24:10.392Z,17.70
2019-05-18T17:26:19.037Z,17.70
2019-05-18T17:28:29.967Z,17.70
2019-05-18T17:30:43.797Z,17.70
2019-05-18T17:32:51.940Z,17.80
2019-05-18T17:35:02.633Z,18.00
2019-05-18T17:37:20.510Z,18.00
2019-05-18T17:39:31.347Z,17.90
2019-05-18T17:41:41.400Z,17.80
2019-05-18T17:43:47.245Z,17.80
2019-05-18T17:45:52.773Z,17.80
2019-05-18T17:47:58.390Z,17.80
2019-05-18T17:50:06.987Z,18.00
2019-05-18T17:52:12.635Z,18.10
2019-05-18T17:54:18.174Z,18.00
2019-05-18T17:56:23.871Z,18.10
2019-05-18T17:58:29.510Z,18.10
2019-05-18T18:00:35.250Z,18.10
2019-05-18T18:02:41.316Z,18.00
2019-05-18T18:04:56.558Z,18.00
2019-05-18T18:07:02.237Z,18.00
2019-05-18T18:09:08.693Z,17.70
2019-05-18T18:11:14.388Z,17.60
2019-05-18T18:13:19.982Z,17.50
2019-05-18T18:15:29.479Z,17.50
2019-05-18T18:17:35.150Z,17.40
2019-05-18T18:19:40.807Z,17.60
2019-05-18T18:21:46.433Z,17.60
2019-05-18T18:23:58.468Z,17.50
2019-05-18T18:26:04.093Z,17.50
2019-05-18T18:28:09.820Z,17.50
2019-05-18T18:30:16.280Z,17.60
2019-05-18T18:32:21.795Z,17.40
2019-05-18T18:34:27.427Z,17.30
2019-05-18T18:36:33.150Z,17.10
2019-05-18T18:38:38.692Z,17.10
2019-05-18T18:40:44.322Z,17.00
2019-05-18T18:43:06.558Z,16.90
2019-05-18T18:45:13.351Z,16.80
2019-05-18T18:47:18.891Z,16.60
2019-05-18T18:49:25.162Z,16.50
2019-05-18T18:51:30.700Z,16.50
2019-05-18T18:53:37.395Z,16.40
2019-05-18T18:55:42.980Z,16.40
2019-05-18T18:57:48.517Z,16.50
2019-05-18T18:59:56.811Z,16.50
2019-05-18T19:02:01.343Z,16.50
2019-05-18T19:04:07.052Z,16.70
2019-05-18T19:06:12.607Z,16.80
2019-05-18T19:08:18.218Z,16.90
2019-05-18T19:10:23.909Z,17.00
2019-05-18T19:12:29.453Z,17.10
2019-05-18T19:14:35.002Z,17.10
2019-05-18T19:16:40.559Z,17.00
2019-05-18T19:18:46.197Z,17.00
2019-05-18T19:20:51.809Z,16.90
2019-05-18T19:22:57.357Z,16.80
2019-05-18T19:25:03.093Z,16.60
2019-05-18T19:27:08.668Z,16.60
2019-05-18T19:29:41.326Z,16.60
2019-05-18T19:31:46.851Z,16.40
2019-05-18T19:33:52.386Z,16.50
2019-05-18T19:36:04.828Z,16.50
2019-05-18T19:38:10.525Z,16.50
2019-05-18T19:40:16.686Z,16.50
2019-05-18T19:42:22.264Z,16.60
2019-05-18T19:44:27.826Z,16.60
2019-05-18T19:46:33.440Z,16.60
2019-05-18T19:48:38.973Z,16.60
2019-05-18T19:50:44.746Z,16.50
2019-05-18T19:52:50.326Z,16.50
2019-05-18T19:54:56.004Z,16.50
2019-05-18T19:57:01.585Z,16.60
2019-05-18T19:59:07.177Z,16.50
2019-05-18T20:01:12.796Z,16.50
2019-05-18T20:03:24.412Z,16.30
2019-05-18T20:08:01.956Z,16.20
2019-05-18T20:10:14.052Z,16.20
2019-05-18T20:12:19.902Z,16.20
2019-05-18T20:14:37.652Z,16.10
2019-05-18T20:16:48.442Z,16.20
2019-05-18T20:18:53.992Z,16.20
2019-05-18T20:20:59.560Z,16.10
2019-05-18T20:23:43.425Z,16.00
2019-05-18T20:25:49.013Z,15.90
2019-05-18T20:27:54.517Z,15.90
2019-05-18T20:30:00.138Z,15.90
2019-05-18T20:32:05.813Z,15.90
2019-05-18T20:34:11.415Z,15.90
2019-05-18T20:36:16.946Z,15.90
2019-05-18T20:38:22.500Z,15.90
2019-05-18T20:40:28.032Z,15.80
2019-05-18T20:42:37.180Z,15.80
2019-05-18T20:44:40.836Z,15.70
2019-05-18T20:46:46.589Z,15.60
2019-05-18T20:48:52.124Z,15.50
2019-05-18T20:50:57.757Z,15.40
2019-05-18T20:53:22.826Z,15.30
2019-05-18T20:55:28.382Z,15.30
2019-05-18T20:57:33.940Z,15.40
2019-05-18T20:59:39.483Z,15.30
2019-05-18T21:01:45.012Z,15.10
2019-05-18T21:03:50.580Z,15.10
2019-05-18T21:06:09.821Z,15.00
2019-05-18T21:08:15.441Z,15.00
2019-05-18T21:10:21.098Z,15.00
2019-05-18T21:12:26.693Z,15.00
2019-05-18T21:14:44.523Z,15.00
2019-05-18T21:16:50.084Z,14.90
2019-05-18T21:18:55.624Z,15.00
2019-05-18T21:21:01.158Z,15.00
2019-05-18T21:23:12.514Z,14.80
2019-05-18T21:25:18.232Z,14.70
2019-05-18T21:27:23.778Z,14.70
2019-05-18T21:29:29.344Z,14.60
2019-05-18T21:31:34.873Z,14.30
2019-05-18T21:33:54.745Z,14.30
2019-05-18T21:36:00.319Z,14.50
2019-05-18T21:38:06.249Z,14.50
2019-05-18T21:40:26.082Z,14.70
2019-05-18T21:43:18.458Z,14.60
2019-05-18T21:45:24.006Z,14.50
2019-05-18T21:47:29.593Z,14.60
2019-05-18T21:49:35.148Z,14.50
2019-05-18T21:51:45.741Z,14.60
2019-05-18T21:53:51.314Z,14.40
2019-05-18T21:55:56.854Z,14.30
2019-05-18T21:58:22.079Z,14.20
2019-05-18T22:00:30.751Z,14.20
2019-05-18T22:02:53.346Z,14.10
2019-05-18T22:04:58.966Z,14.00
2019-05-18T22:07:05.728Z,14.00
2019-05-18T22:09:11.433Z,14.30
2019-05-18T22:11:17.037Z,14.50
2019-05-18T22:13:28.873Z,14.20
2019-05-18T22:15:56.065Z,14.10
2019-05-18T22:18:04.562Z,14.10
2019-05-18T22:20:10.233Z,14.10
2019-05-18T22:22:15.872Z,14.00
2019-05-18T22:24:21.414Z,14.10
2019-05-18T22:26:30.763Z,14.00
2019-05-18T22:28:36.496Z,13.90
2019-05-18T22:30:43.256Z,13.80
2019-05-18T22:32:48.800Z,13.80
2019-05-18T22:34:54.366Z,14.00
2019-05-18T22:36:59.910Z,14.10
2019-05-18T22:39:26.737Z,13.90
2019-05-18T22:41:32.432Z,13.80
2019-05-18T22:43:37.960Z,13.90
2019-05-18T22:45:43.554Z,13.70
2019-05-18T22:47:49.110Z,13.60
2019-05-18T22:49:56.230Z,13.60
2019-05-18T22:52:01.813Z,13.50
2019-05-18T22:54:07.451Z,13.50
2019-05-18T22:56:15.789Z,13.30
2019-05-18T22:58:33.364Z,13.20
2019-05-18T23:00:38.990Z,13.20
2019-05-18T23:02:46.788Z,13.10
2019-05-18T23:04:52.377Z,13.10
2019-05-18T23:06:58.027Z,13.20
2019-05-18T23:09:05.008Z,13.20
2019-05-18T23:11:10.614Z,13.30
2019-05-18T23:13:18.356Z,13.30
2019-05-18T23:15:23.962Z,13.00
2019-05-18T23:17:29.669Z,13.20
2019-05-18T23:19:35.185Z,13.20
2019-05-18T23:21:40.700Z,13.20
2019-05-18T23:23:46.237Z,13.10
2019-05-18T23:25:51.906Z,12.90
2019-05-18T23:27:57.449Z,13.00
2019-05-18T23:30:04.351Z,13.10
2019-05-18T23:32:10.166Z,13.00
2019-05-18T23:34:15.663Z,13.20
2019-05-18T23:36:21.196Z,13.30
2019-05-18T23:38:26.775Z,13.20
2019-05-18T23:40:35.437Z,13.30
2019-05-18T23:42:41.003Z,13.10
2019-05-18T23:44:48.220Z,13.10
2019-05-18T23:46:53.781Z,13.00
2019-05-18T23:49:10.086Z,13.10
2019-05-18T23:51:06.799Z,13.10
2019-05-18T23:53:12.380Z,13.00
2019-05-18T23:55:18.067Z,13.00
2019-05-18T23:57:23.630Z,12.90
2019-05-18T23:59:29.213Z,12.70
